Time;durP1;ratioP1;P1;durP2;ratioP2;P2;SDS_P1;SDS_P2;PMS_P1;PMS_P2;Temp;Humidity;BMP_temperature;BMP_pressure;BME280_temperature;BME280_humidity;BME280_pressure;Samples;Min_cycle;Max_cycle;Signal;HPM_P1;HPM_P2
2021/11/18 00:01:21;;;;;;;13.80;13.30;;;19.30;99.40;;;;;;5035743;28;20449;-50
2021/11/18 00:03:48;;;;;;;14.10;13.60;;;19.30;99.40;;;;;;5035344;28;20448;-54
2021/11/18 00:06:16;;;;;;;13.80;13.30;;;19.30;99.30;;;;;;5034477;28;20448;-53
2021/11/18 00:08:43;;;;;;;13.40;12.90;;;19.30;99.40;;;;;;5035896;28;20864;-52
2021/11/18 00:11:13;;;;;;;13.37;12.87;;;19.30;99.40;;;;;;5035273;28;20453;-52
2021/11/18 00:13:44;;;;;;;14.53;14.03;;;19.20;99.40;;;;;;5033032;28;20449;-51
2021/11/18 00:16:11;;;;;;;14.20;13.70;;;19.30;99.30;;;;;;5030749;28;20457;-55
2021/11/18 00:18:39;;;;;;;14.27;13.70;;;19.20;99.40;;;;;;5031271;28;20445;-51
2021/11/18 00:21:07;;;;;;;14.00;13.40;;;19.20;99.30;;;;;;5031640;28;20756;-51
2021/11/18 00:23:37;;;;;;;14.30;13.80;;;19.20;99.20;;;;;;5031364;28;20472;-51
2021/11/18 00:26:05;;;;;;;14.20;13.70;;;19.20;99.20;;;;;;5031688;28;20445;-54
2021/11/18 00:28:33;;;;;;;14.23;13.70;;;19.20;99.10;;;;;;5031376;28;20481;-52
2021/11/18 00:31:00;;;;;;;13.80;13.30;;;19.10;99.20;;;;;;5031525;28;20452;-52
2021/11/18 00:33:27;;;;;;;13.80;13.20;;;19.10;99.30;;;;;;5031307;28;20523;-51
2021/11/18 00:35:55;;;;;;;13.80;13.30;;;19.20;99.30;;;;;;5031515;28;20445;-51
2021/11/18 00:38:22;;;;;;;14.00;13.50;;;19.10;99.30;;;;;;5031495;28;20469;-55
2021/11/18 00:40:51;;;;;;;13.90;13.47;;;19.10;99.20;;;;;;5031258;28;20480;-52
2021/11/18 00:43:20;;;;;;;14.10;13.53;;;19.10;99.20;;;;;;5031178;28;20452;-51
2021/11/18 00:45:49;;;;;;;13.93;13.33;;;19.00;99.40;;;;;;5031398;28;20528;-52
2021/11/18 00:48:16;;;;;;;13.93;13.43;;;19.00;99.40;;;;;;5031243;28;20465;-53
2021/11/18 00:50:45;;;;;;;14.43;13.80;;;19.00;99.50;;;;;;5031158;28;20440;-50
2021/11/18 00:53:12;;;;;;;14.43;13.90;;;19.00;99.60;;;;;;5031152;28;20460;-52
2021/11/18 00:55:40;;;;;;;14.70;14.13;;;19.00;99.80;;;;;;5031299;28;20448;-55
2021/11/18 00:58:07;;;;;;;14.00;13.50;;;19.00;99.90;;;;;;5031155;28;21001;-51
2021/11/18 01:00:36;;;;;;;13.83;13.43;;;19.00;99.90;;;;;;5031009;28;21025;-52
2021/11/18 01:03:05;;;;;;;13.60;12.90;;;19.00;99.90;;;;;;5031259;28;20441;-54
2021/11/18 01:05:35;;;;;;;13.97;13.47;;;19.10;99.90;;;;;;5030938;28;20453;-52
2021/11/18 01:08:03;;;;;;;13.57;13.17;;;19.00;99.90;;;;;;5031060;28;20473;-51
2021/11/18 01:10:36;;;;;;;13.00;12.60;;;19.00;99.90;;;;;;5031012;28;20444;-51
2021/11/18 01:13:04;;;;;;;13.80;13.30;;;18.90;99.90;;;;;;5031140;28;20868;-50
2021/11/18 01:15:33;;;;;;;13.50;12.90;;;19.00;99.90;;;;;;5030943;28;20445;-51
2021/11/18 01:18:00;;;;;;;13.67;13.20;;;19.00;99.90;;;;;;5030591;28;20476;-51
2021/11/18 01:20:29;;;;;;;13.23;12.83;;;18.90;99.90;;;;;;5030707;28;20484;-52
2021/11/18 01:22:58;;;;;;;13.03;12.60;;;18.80;99.90;;;;;;5031155;28;20503;-51
2021/11/18 01:25:25;;;;;;;13.43;13.03;;;18.90;99.90;;;;;;5030992;28;20460;-52
2021/11/18 01:27:51;;;;;;;13.70;13.30;;;18.80;99.90;;;;;;5031272;28;20484;-49
2021/11/18 01:30:22;;;;;;;13.77;13.27;;;18.90;99.90;;;;;;5034519;28;20441;-51
2021/11/18 01:32:50;;;;;;;14.00;13.47;;;18.90;99.90;;;;;;5034612;28;20475;-52
2021/11/18 01:35:17;;;;;;;13.60;13.20;;;18.80;99.90;;;;;;5034516;28;20445;-52
2021/11/18 01:37:45;;;;;;;13.60;13.03;;;18.80;99.90;;;;;;5034595;28;20467;-51
2021/11/18 01:40:18;;;;;;;13.87;13.37;;;18.80;99.90;;;;;;5034075;28;20506;-50
2021/11/18 01:42:44;;;;;;;13.30;12.90;;;18.80;99.90;;;;;;5034383;28;20611;-52
2021/11/18 01:45:13;;;;;;;14.27;13.77;;;18.70;99.90;;;;;;5034312;28;20973;-52
2021/11/18 01:47:40;;;;;;;13.93;13.43;;;18.80;99.90;;;;;;5034308;28;20500;-51
2021/11/18 01:50:11;;;;;;;13.70;13.20;;;18.80;99.90;;;;;;5034105;28;20472;-53
2021/11/18 01:52:40;;;;;;;14.67;14.07;;;18.80;99.90;;;;;;5034026;28;20917;-51
2021/11/18 01:55:09;;;;;;;12.70;12.30;;;18.80;99.90;;;;;;5034355;28;20448;-51
2021/11/18 01:57:36;;;;;;;13.20;12.80;;;18.80;99.90;;;;;;5034180;28;20484;-53
2021/11/18 02:00:06;;;;;;;14.03;13.50;;;18.70;99.90;;;;;;5033860;28;20891;-51
2021/11/18 02:02:35;;;;;;;13.30;12.80;;;18.80;99.90;;;;;;5034148;28;20445;-54
2021/11/18 02:05:11;;;;;;;13.50;13.10;;;18.70;99.90;;;;;;5033892;28;20503;-50
2021/11/18 02:07:38;;;;;;;13.50;13.10;;;18.70;99.90;;;;;;5034061;28;20797;-49
2021/11/18 02:10:08;;;;;;;14.43;13.83;;;18.60;99.90;;;;;;5033772;28;20444;-49
2021/11/18 02:12:35;;;;;;;14.33;13.83;;;18.60;99.90;;;;;;5033965;28;20448;-51
2021/11/18 02:15:03;;;;;;;14.00;13.50;;;18.70;99.90;;;;;;5033819;28;20449;-49
2021/11/18 02:17:30;;;;;;;13.50;13.10;;;18.60;99.90;;;;;;5033538;28;20468;-50
2021/11/18 02:20:01;;;;;;;13.63;13.23;;;18.70;99.90;;;;;;5033381;28;20484;-50
2021/11/18 02:22:29;;;;;;;13.70;13.30;;;18.60;99.90;;;;;;5033760;28;20448;-49
2021/11/18 02:24:58;;;;;;;14.50;13.90;;;18.70;99.90;;;;;;5033759;28;20511;-52
2021/11/18 02:27:28;;;;;;;13.40;13.00;;;18.60;99.90;;;;;;5033535;28;20488;-49
2021/11/18 02:29:56;;;;;;;14.10;13.53;;;18.70;99.90;;;;;;5033241;28;20468;-49
2021/11/18 02:32:26;;;;;;;13.73;13.23;;;18.60;99.90;;;;;;5033550;28;20457;-50
2021/11/18 02:34:55;;;;;;;12.80;12.40;;;18.60;99.90;;;;;;5033707;28;20445;-48
2021/11/18 02:37:24;;;;;;;13.13;12.73;;;18.60;99.90;;;;;;5033500;28;20461;-49
2021/11/18 02:39:51;;;;;;;13.17;12.77;;;18.60;99.90;;;;;;5032473;28;21001;-53
2021/11/18 02:42:19;;;;;;;12.60;12.20;;;18.50;99.90;;;;;;5033219;28;20452;-51
2021/11/18 02:44:47;;;;;;;13.10;12.70;;;18.40;99.90;;;;;;5033426;28;20499;-49
2021/11/18 02:47:14;;;;;;;13.33;12.93;;;18.40;99.90;;;;;;5033088;28;20465;-50
2021/11/18 02:49:43;;;;;;;13.83;13.27;;;18.50;99.90;;;;;;5033114;28;20807;-48
2021/11/18 02:52:11;;;;;;;13.37;12.77;;;18.50;99.90;;;;;;5033384;28;20815;-54
2021/11/18 02:54:40;;;;;;;13.53;13.03;;;18.50;99.90;;;;;;5033138;28;20452;-50
2021/11/18 02:57:07;;;;;;;13.90;13.50;;;18.50;99.90;;;;;;5033145;28;20468;-51
2021/11/18 02:59:36;;;;;;;13.37;12.97;;;18.50;99.90;;;;;;5032172;28;20442;-49
2021/11/18 03:02:05;;;;;;;14.03;13.50;;;18.50;99.90;;;;;;5033025;28;20460;-48
2021/11/18 03:04:32;;;;;;;13.70;13.23;;;18.50;99.90;;;;;;5033088;28;20445;-48
2021/11/18 03:07:00;;;;;;;13.40;12.70;;;18.50;99.90;;;;;;5032861;28;20515;-49
2021/11/18 03:09:27;;;;;;;12.90;12.50;;;18.50;99.90;;;;;;5032448;28;20445;-50
2021/11/18 03:11:55;;;;;;;13.00;12.60;;;18.50;99.90;;;;;;5032858;28;20449;-49
2021/11/18 03:14:23;;;;;;;13.30;12.90;;;18.40;99.90;;;;;;5032785;28;20452;-51
2021/11/18 03:16:49;;;;;;;13.37;12.97;;;18.50;99.90;;;;;;5032696;28;20480;-49
2021/11/18 03:19:16;;;;;;;13.43;12.93;;;18.40;99.90;;;;;;5032541;28;20456;-48
2021/11/18 03:21:43;;;;;;;13.63;13.17;;;18.30;99.90;;;;;;5032337;28;20476;-50
2021/11/18 03:24:11;;;;;;;13.97;13.37;;;18.30;99.90;;;;;;5032461;28;20449;-48
2021/11/18 03:26:37;;;;;;;13.67;13.27;;;18.40;99.90;;;;;;5032391;28;20465;-50
2021/11/18 03:29:06;;;;;;;12.50;12.03;;;18.50;99.90;;;;;;5032357;28;20453;-48
2021/11/18 03:31:33;;;;;;;12.57;12.17;;;18.40;99.90;;;;;;5032483;28;20543;-50
2021/11/18 03:34:02;;;;;;;13.50;13.10;;;18.40;99.90;;;;;;5032158;28;20448;-48
2021/11/18 03:36:30;;;;;;;13.27;12.77;;;18.40;99.90;;;;;;5032344;28;20452;-51
2021/11/18 03:38:59;;;;;;;12.40;12.00;;;18.40;99.90;;;;;;5032146;28;20441;-52
2021/11/18 03:41:28;;;;;;;13.43;13.03;;;18.50;99.90;;;;;;5032136;28;20484;-49
2021/11/18 03:43:58;;;;;;;13.20;12.80;;;18.50;99.90;;;;;;5032338;28;20445;-52
2021/11/18 03:46:31;;;;;;;12.63;12.23;;;18.50;99.90;;;;;;5031824;28;20792;-49
2021/11/18 03:48:58;;;;;;;13.47;12.87;;;18.50;99.90;;;;;;5032038;28;20448;-49
2021/11/18 03:51:28;;;;;;;13.80;13.30;;;18.50;99.90;;;;;;5031217;28;20449;-49
2021/11/18 03:53:55;;;;;;;13.53;13.13;;;18.50;99.90;;;;;;5032115;28;20452;-49
2021/11/18 03:56:25;;;;;;;13.20;12.80;;;18.50;99.90;;;;;;5032155;28;20446;-53
2021/11/18 03:58:52;;;;;;;13.50;13.10;;;18.50;99.90;;;;;;5031670;28;20816;-48
2021/11/18 04:01:20;;;;;;;13.17;12.70;;;18.50;99.90;;;;;;5031564;28;20484;-48
2021/11/18 04:03:49;;;;;;;13.40;12.80;;;18.50;99.90;;;;;;5031819;28;20440;-48
2021/11/18 04:06:16;;;;;;;13.00;12.60;;;18.50;99.90;;;;;;5031838;28;20453;-50
2021/11/18 04:08:43;;;;;;;13.70;13.17;;;18.50;99.90;;;;;;5031626;28;20950;-48
2021/11/18 04:11:10;;;;;;;13.10;12.70;;;18.40;99.90;;;;;;5031361;28;20944;-49
2021/11/18 04:13:37;;;;;;;13.53;13.03;;;18.50;99.90;;;;;;5031896;28;20476;-48
2021/11/18 04:16:06;;;;;;;12.70;12.20;;;18.50;99.90;;;;;;5031995;28;20503;-52
2021/11/18 04:18:33;;;;;;;12.87;12.37;;;18.40;99.90;;;;;;5031498;28;20469;-50
2021/11/18 04:21:01;;;;;;;12.57;12.07;;;18.40;99.90;;;;;;5031250;28;20488;-48
2021/11/18 04:23:28;;;;;;;13.07;12.67;;;18.30;99.90;;;;;;5031569;28;20755;-48
2021/11/18 04:25:55;;;;;;;12.83;12.43;;;18.30;99.90;;;;;;5031672;28;20445;-49
2021/11/18 04:28:23;;;;;;;12.67;12.20;;;18.30;99.90;;;;;;5031854;28;20891;-52
2021/11/18 04:30:53;;;;;;;12.70;12.10;;;18.30;99.90;;;;;;5031474;28;20946;-48
2021/11/18 04:33:21;;;;;;;12.07;11.67;;;18.30;99.90;;;;;;5031293;28;20452;-48
2021/11/18 04:35:48;;;;;;;12.60;12.20;;;18.30;99.90;;;;;;5031261;28;20445;-51
2021/11/18 04:38:16;;;;;;;12.70;12.30;;;18.40;99.90;;;;;;5031374;28;20468;-52
2021/11/18 04:40:43;;;;;;;12.80;12.30;;;18.30;99.90;;;;;;5031134;28;20487;-50
2021/11/18 04:43:10;;;;;;;11.50;11.20;;;18.40;99.90;;;;;;5031482;28;20460;-50
2021/11/18 04:45:37;;;;;;;13.20;12.70;;;18.40;99.90;;;;;;5031268;28;20449;-50
2021/11/18 04:48:05;;;;;;;12.30;11.90;;;18.40;99.90;;;;;;5031056;28;20473;-49
2021/11/18 04:50:34;;;;;;;12.60;12.20;;;18.40;99.90;;;;;;5031227;28;20503;-52
2021/11/18 04:53:01;;;;;;;12.80;12.40;;;18.40;99.90;;;;;;5031232;28;20962;-51
2021/11/18 04:55:30;;;;;;;12.50;12.10;;;18.40;99.90;;;;;;5031363;28;20445;-50
2021/11/18 04:57:56;;;;;;;13.13;12.63;;;18.40;99.90;;;;;;5030921;28;20476;-51
2021/11/18 05:00:26;;;;;;;12.43;12.03;;;18.30;99.90;;;;;;5031011;28;20477;-51
2021/11/18 05:02:53;;;;;;;13.63;13.03;;;18.30;99.90;;;;;;5032046;28;20507;-48
2021/11/18 05:05:23;;;;;;;14.30;13.80;;;18.20;99.90;;;;;;5035331;28;20444;-50
2021/11/18 05:07:50;;;;;;;13.57;13.07;;;18.20;99.90;;;;;;5034741;28;20465;-52
2021/11/18 05:10:18;;;;;;;13.00;12.60;;;18.20;99.90;;;;;;5035095;28;20460;-48
2021/11/18 05:12:46;;;;;;;14.70;14.20;;;18.20;99.90;;;;;;5035083;28;20449;-48
2021/11/18 05:15:18;;;;;;;13.60;13.20;;;18.30;99.90;;;;;;5035149;28;20456;-48
2021/11/18 05:17:45;;;;;;;13.40;12.63;;;18.20;99.90;;;;;;5034480;28;20839;-50
2021/11/18 05:20:12;;;;;;;13.10;12.63;;;18.20;99.90;;;;;;5034799;28;20813;-49
2021/11/18 05:22:39;;;;;;;13.77;13.33;;;18.20;99.90;;;;;;5025449;28;20839;-51
2021/11/18 05:25:07;;;;;;;13.63;13.23;;;18.20;99.90;;;;;;5022992;28;20452;-49
2021/11/18 05:27:34;;;;;;;13.93;13.43;;;18.20;99.90;;;;;;5023009;28;20480;-52
2021/11/18 05:30:03;;;;;;;13.93;13.53;;;18.20;99.90;;;;;;5022201;28;20457;-50
2021/11/18 05:32:30;;;;;;;15.40;14.80;;;18.30;99.90;;;;;;5023207;28;20483;-50
2021/11/18 05:34:58;;;;;;;15.17;14.60;;;19.60;99.90;;;;;;5022880;28;20466;-51
2021/11/18 05:37:25;;;;;;;15.23;14.73;;;20.80;98.70;;;;;;5022611;28;20481;-53
2021/11/18 05:39:52;;;;;;;14.47;13.97;;;21.40;95.90;;;;;;5022410;28;20460;-49
2021/11/18 05:42:19;;;;;;;14.30;13.80;;;21.90;94.10;;;;;;5022369;28;20861;-51
2021/11/18 05:44:48;;;;;;;14.80;14.20;;;22.60;91.60;;;;;;5022501;28;20460;-49
2021/11/18 05:47:16;;;;;;;14.87;14.20;;;23.10;88.10;;;;;;5022403;28;20965;-52
2021/11/18 05:49:43;;;;;;;15.50;14.73;;;23.20;84.30;;;;;;5022258;28;21030;-49
2021/11/18 05:52:10;;;;;;;14.50;13.90;;;23.30;82.10;;;;;;5022443;28;20794;-51
2021/11/18 05:54:36;;;;;;;14.87;14.37;;;23.40;80.60;;;;;;5022305;28;20453;-51
2021/11/18 05:57:03;;;;;;;14.80;14.30;;;23.50;79.20;;;;;;5022027;28;20885;-50
2021/11/18 05:59:30;;;;;;;15.97;15.47;;;23.50;78.40;;;;;;5022117;28;20930;-49
2021/11/18 06:01:57;;;;;;;14.50;14.10;;;23.40;77.40;;;;;;5021905;28;20507;-53
2021/11/18 06:04:25;;;;;;;14.00;13.60;;;23.40;76.90;;;;;;5022324;28;20450;-60
2021/11/18 06:06:52;;;;;;;15.10;14.50;;;23.40;76.50;;;;;;5022200;28;20519;-49
2021/11/18 06:09:19;;;;;;;16.07;15.17;;;23.30;76.10;;;;;;5021736;28;20484;-52
2021/11/18 06:11:46;;;;;;;15.30;14.80;;;23.20;76.00;;;;;;5021782;28;20457;-51
2021/11/18 06:14:14;;;;;;;14.80;14.30;;;23.20;76.40;;;;;;5020970;28;20651;-53
2021/11/18 06:16:41;;;;;;;14.87;14.37;;;23.20;76.50;;;;;;5021547;28;20480;-54
2021/11/18 06:19:08;;;;;;;14.60;14.10;;;23.10;76.60;;;;;;5021746;28;20456;-56
2021/11/18 06:21:39;;;;;;;15.33;14.83;;;23.10;76.80;;;;;;5021931;28;20499;-51
2021/11/18 06:24:08;;;;;;;15.87;15.30;;;23.00;76.90;;;;;;5021766;28;20456;-57
2021/11/18 06:26:34;;;;;;;15.70;15.20;;;23.00;77.20;;;;;;5021630;28;20476;-52
2021/11/18 06:29:01;;;;;;;15.40;14.90;;;22.90;77.40;;;;;;5021576;28;20499;-53
2021/11/18 06:31:28;;;;;;;14.77;14.30;;;22.90;77.70;;;;;;5021561;28;20453;-50
2021/11/18 06:33:55;;;;;;;15.20;14.70;;;22.80;77.80;;;;;;5021544;28;21254;-54
2021/11/18 06:36:22;;;;;;;15.90;15.40;;;22.70;78.30;;;;;;5021215;28;20935;-51
2021/11/18 06:38:52;;;;;;;15.70;15.10;;;22.70;78.50;;;;;;5021142;28;21326;-49
2021/11/18 06:41:22;;;;;;;15.90;15.40;;;22.70;78.80;;;;;;5021681;28;20485;-50
2021/11/18 06:43:49;;;;;;;15.53;15.03;;;22.60;78.80;;;;;;5021657;28;20825;-50
2021/11/18 06:46:17;;;;;;;13.70;13.20;;;22.50;79.00;;;;;;5021334;28;21020;-51
2021/11/18 06:48:44;;;;;;;15.20;14.70;;;22.50;79.30;;;;;;5020871;28;20563;-49
2021/11/18 06:51:14;;;;;;;13.30;12.70;;;22.40;79.40;;;;;;5021417;28;20453;-51
2021/11/18 06:53:42;;;;;;;12.90;12.50;;;22.30;79.80;;;;;;5021479;28;20456;-49
2021/11/18 06:56:12;;;;;;;14.37;13.80;;;22.20;80.10;;;;;;5021391;28;20920;-51
2021/11/18 06:58:39;;;;;;;14.23;13.73;;;22.20;80.60;;;;;;5020991;28;20489;-49
2021/11/18 07:01:06;;;;;;;13.07;12.60;;;22.10;80.70;;;;;;5020837;28;20531;-49
2021/11/18 07:03:33;;;;;;;13.13;12.73;;;22.10;80.90;;;;;;5021314;28;20456;-54
2021/11/18 07:06:00;;;;;;;13.17;12.67;;;22.00;81.00;;;;;;5021037;28;20449;-52
2021/11/18 07:08:26;;;;;;;13.43;13.00;;;21.90;81.30;;;;;;5020948;28;21229;-53
2021/11/18 07:10:53;;;;;;;13.60;13.17;;;21.90;81.60;;;;;;5020747;28;21084;-49
2021/11/18 07:13:24;;;;;;;13.03;12.63;;;21.90;81.90;;;;;;5020748;28;20456;-50
2021/11/18 07:15:52;;;;;;;13.63;13.13;;;21.80;82.20;;;;;;5020943;28;20459;-50
2021/11/18 07:18:19;;;;;;;12.83;12.43;;;21.70;82.40;;;;;;5020682;28;20560;-53
2021/11/18 07:20:46;;;;;;;14.13;13.33;;;21.70;82.70;;;;;;5020533;28;20448;-50
2021/11/18 07:23:13;;;;;;;14.17;13.57;;;21.60;82.80;;;;;;5020756;28;20456;-53
2021/11/18 07:25:40;;;;;;;14.00;13.60;;;21.60;83.20;;;;;;5020348;28;20451;-50
2021/11/18 07:28:07;;;;;;;13.87;13.40;;;21.60;83.40;;;;;;5019950;28;20535;-52
2021/11/18 07:30:35;;;;;;;14.17;13.73;;;21.60;83.60;;;;;;5020322;28;20456;-50
2021/11/18 07:33:03;;;;;;;13.67;13.07;;;21.50;83.70;;;;;;5020432;28;20915;-52
2021/11/18 07:35:31;;;;;;;13.63;13.23;;;21.40;84.20;;;;;;5020579;28;20961;-50
2021/11/18 07:37:58;;;;;;;13.50;13.10;;;21.40;84.20;;;;;;5020297;28;20476;-50
2021/11/18 07:40:26;;;;;;;13.87;13.37;;;21.40;84.40;;;;;;5020452;28;20484;-52
2021/11/18 07:42:54;;;;;;;14.03;13.53;;;21.30;84.70;;;;;;5020029;28;20857;-53
2021/11/18 07:45:23;;;;;;;14.10;13.70;;;21.30;84.70;;;;;;5020243;28;20449;-50
2021/11/18 07:47:51;;;;;;;13.20;12.80;;;21.30;85.10;;;;;;5019965;28;20464;-55
2021/11/18 07:50:19;;;;;;;14.60;14.00;;;21.30;85.20;;;;;;5019874;28;20460;-53
2021/11/18 07:52:46;;;;;;;14.00;13.50;;;21.20;85.30;;;;;;5020227;28;20468;-53
2021/11/18 07:55:15;;;;;;;13.53;13.13;;;21.20;85.50;;;;;;5020152;28;20457;-51
2021/11/18 07:57:42;;;;;;;13.90;13.40;;;21.10;85.60;;;;;;5020132;28;20475;-51
2021/11/18 08:00:12;;;;;;;13.53;13.07;;;21.10;85.80;;;;;;5019671;28;20539;-53
2021/11/18 08:02:40;;;;;;;12.83;12.40;;;21.00;86.10;;;;;;5019513;28;20481;-51
2021/11/18 08:05:09;;;;;;;14.30;13.80;;;21.00;86.60;;;;;;5019966;28;20555;-50
2021/11/18 08:07:36;;;;;;;14.13;13.67;;;21.00;86.80;;;;;;5019751;28;20465;-50
2021/11/18 08:10:04;;;;;;;13.83;13.43;;;20.90;87.00;;;;;;5019749;28;20460;-50
2021/11/18 08:12:33;;;;;;;14.10;13.60;;;20.90;87.40;;;;;;5019811;28;20883;-52
2021/11/18 08:15:00;;;;;;;14.27;13.87;;;20.90;87.60;;;;;;5020066;28;20503;-49
2021/11/18 08:17:27;;;;;;;12.80;12.40;;;20.90;87.70;;;;;;5019867;28;20465;-51
2021/11/18 08:19:53;;;;;;;13.40;13.00;;;20.90;87.90;;;;;;5019770;28;20456;-51
2021/11/18 08:22:22;;;;;;;12.67;12.27;;;20.80;88.00;;;;;;5019641;28;20543;-52
2021/11/18 08:24:48;;;;;;;13.80;13.40;;;20.80;88.50;;;;;;5019685;28;20883;-53
2021/11/18 08:27:15;;;;;;;13.27;12.87;;;20.70;89.00;;;;;;5019611;28;20488;-51
2021/11/18 08:29:42;;;;;;;13.40;13.00;;;20.70;89.30;;;;;;5019582;28;20449;-49
2021/11/18 08:32:09;;;;;;;12.73;12.33;;;20.60;89.40;;;;;;5019649;28;20901;-52
2021/11/18 08:34:36;;;;;;;14.17;13.57;;;20.60;89.80;;;;;;5019557;28;20453;-51
2021/11/18 08:37:04;;;;;;;13.47;13.07;;;20.50;90.00;;;;;;5018828;28;20472;-54
2021/11/18 08:39:33;;;;;;;13.57;13.17;;;20.50;90.20;;;;;;5019116;28;20448;-52
2021/11/18 08:42:03;;;;;;;13.73;13.23;;;20.50;90.40;;;;;;5019582;28;20960;-50
2021/11/18 08:44:33;;;;;;;13.70;13.13;;;20.50;90.50;;;;;;5019564;28;20928;-50
2021/11/18 08:47:00;;;;;;;13.80;13.40;;;20.50;90.60;;;;;;5019344;28;20858;-52
2021/11/18 08:49:27;;;;;;;13.50;13.10;;;20.50;90.60;;;;;;5019294;28;20460;-50
2021/11/18 08:51:56;;;;;;;13.10;12.70;;;20.50;90.70;;;;;;5019226;28;20472;-49
2021/11/18 08:54:26;;;;;;;14.27;13.80;;;20.50;90.60;;;;;;5019509;28;20453;-54
2021/11/18 08:56:56;;;;;;;13.70;13.20;;;20.40;90.70;;;;;;5019838;28;20492;-53
2021/11/18 08:59:23;;;;;;;13.87;13.47;;;20.30;90.70;;;;;;5019255;28;20460;-53
2021/11/18 09:01:54;;;;;;;13.53;13.13;;;20.40;90.90;;;;;;5019308;28;20489;-51
2021/11/18 09:04:23;;;;;;;14.57;14.17;;;20.40;91.10;;;;;;5019306;28;20947;-52
2021/11/18 09:06:51;;;;;;;14.50;13.93;;;20.40;91.40;;;;;;5019234;28;20473;-56
2021/11/18 09:09:21;;;;;;;13.43;13.03;;;20.40;91.60;;;;;;5019080;28;20806;-51
2021/11/18 09:11:49;;;;;;;13.50;13.00;;;20.40;91.70;;;;;;5019230;28;20445;-53
2021/11/18 09:14:18;;;;;;;14.07;13.57;;;20.40;91.90;;;;;;5019176;28;20457;-50
2021/11/18 09:16:46;;;;;;;13.27;12.87;;;20.40;91.90;;;;;;5019183;28;20792;-52
2021/11/18 09:19:15;;;;;;;13.87;13.40;;;20.40;92.00;;;;;;5018973;28;20453;-53
2021/11/18 09:21:43;;;;;;;13.73;13.30;;;20.40;92.10;;;;;;5019160;28;20485;-51
2021/11/18 09:24:15;;;;;;;14.03;13.47;;;20.50;92.20;;;;;;5018710;28;20456;-54
2021/11/18 09:26:45;;;;;;;14.10;13.70;;;20.40;92.10;;;;;;5018795;28;20484;-51
2021/11/18 09:29:12;;;;;;;14.10;13.70;;;20.50;92.30;;;;;;5018826;28;20464;-50
2021/11/18 09:31:42;;;;;;;14.60;13.90;;;20.40;92.30;;;;;;5019173;28;20449;-52
2021/11/18 09:34:10;;;;;;;14.53;13.80;;;20.40;92.30;;;;;;5019180;28;20457;-49
2021/11/18 09:36:36;;;;;;;14.07;13.60;;;20.50;92.40;;;;;;5018946;28;20476;-55
2021/11/18 09:39:05;;;;;;;13.93;13.50;;;20.50;92.40;;;;;;5018548;28;20449;-50
2021/11/18 09:41:56;;;;;;;14.40;13.90;;;20.50;92.40;;;;;;5018957;28;20449;-49
2021/11/18 09:44:51;;;;;;;13.53;13.10;;;20.50;92.50;;;;;;5018869;28;20456;-49
2021/11/18 09:47:56;;;;;;;14.20;13.67;;;20.40;92.70;;;;;;5018746;28;20475;-49
2021/11/18 09:50:33;;;;;;;13.93;13.43;;;20.40;92.80;;;;;;5020101;28;21052;-49
2021/11/18 09:53:09;;;;;;;13.70;13.30;;;20.40;92.90;;;;;;5022661;28;20449;-51
2021/11/18 09:55:41;;;;;;;14.07;13.57;;;20.50;93.00;;;;;;5022454;28;20783;-52
2021/11/18 09:58:23;;;;;;;13.93;13.53;;;20.40;92.80;;;;;;5022474;28;20466;-49
2021/11/18 10:01:03;;;;;;;15.23;14.53;;;20.50;92.80;;;;;;5022402;28;20828;-50
2021/11/18 10:03:36;;;;;;;13.70;13.23;;;20.50;92.80;;;;;;5022388;28;20484;-52
2021/11/18 10:06:16;;;;;;;14.53;14.00;;;20.50;92.80;;;;;;5022343;28;20943;-50
2021/11/18 10:08:52;;;;;;;13.77;13.27;;;20.50;92.60;;;;;;5021967;28;21028;-52
2021/11/18 10:11:22;;;;;;;13.90;13.30;;;20.50;92.70;;;;;;5022224;28;20441;-48
2021/11/18 10:14:07;;;;;;;17.60;16.90;;;20.50;92.70;;;;;;5021910;28;21005;-52
2021/11/18 10:16:42;;;;;;;17.60;16.90;;;20.50;92.60;;;;;;5022094;28;21068;-50
2021/11/18 10:19:11;;;;;;;16.97;16.37;;;20.50;92.50;;;;;;5021678;28;20930;-48
2021/11/18 10:21:43;;;;;;;17.50;16.80;;;20.50;92.50;;;;;;5021968;28;20460;-48
2021/11/18 10:24:13;;;;;;;17.67;16.87;;;20.60;92.40;;;;;;5021885;28;20448;-51
2021/11/18 10:26:43;;;;;;;13.20;12.70;;;20.60;92.30;;;;;;5022501;28;20477;-50
2021/11/18 10:29:14;;;;;;;13.17;12.67;;;20.60;92.30;;;;;;5021903;28;20445;-52
2021/11/18 10:31:50;;;;;;;13.40;12.97;;;20.60;92.20;;;;;;5021536;28;20453;-50
2021/11/18 10:34:23;;;;;;;14.13;13.53;;;20.70;92.20;;;;;;5021696;28;20929;-50
2021/11/18 10:37:12;;;;;;;12.77;12.37;;;20.70;92.00;;;;;;5021660;28;20480;-49
2021/11/18 10:39:49;;;;;;;13.30;12.80;;;20.70;91.90;;;;;;5021374;28;20452;-50
2021/11/18 10:42:23;;;;;;;13.27;12.77;;;20.80;91.80;;;;;;5021528;28;20487;-53
2021/11/18 10:44:53;;;;;;;13.73;13.23;;;20.90;91.60;;;;;;5021363;28;20963;-50
2021/11/18 10:47:24;;;;;;;13.43;13.03;;;21.00;91.50;;;;;;5021203;28;20469;-51
2021/11/18 10:49:58;;;;;;;13.53;13.00;;;21.90;90.90;;;;;;5021335;28;20445;-51
2021/11/18 10:52:33;;;;;;;14.70;14.20;;;23.30;85.30;;;;;;5021191;28;21120;-52
2021/11/18 10:55:05;;;;;;;13.50;13.10;;;24.30;77.30;;;;;;5021108;28;20452;-49
2021/11/18 10:57:33;;;;;;;14.10;13.50;;;24.90;71.50;;;;;;5021149;28;21393;-52
2021/11/18 11:00:18;;;;;;;14.50;13.93;;;25.40;67.70;;;;;;5021110;28;20460;-54
2021/11/18 11:02:45;;;;;;;15.60;15.00;;;25.70;64.30;;;;;;5020841;28;20492;-55
2021/11/18 11:05:34;;;;;;;14.90;14.30;;;25.70;62.80;;;;;;5021075;28;20464;-52
2021/11/18 11:08:03;;;;;;;14.87;14.37;;;25.70;61.40;;;;;;5020551;28;20481;-54
2021/11/18 11:10:35;;;;;;;16.30;15.60;;;25.80;60.90;;;;;;5020928;28;21061;-51
2021/11/18 11:13:12;;;;;;;15.13;14.63;;;26.00;59.90;;;;;;5020761;28;20451;-51
2021/11/18 11:16:11;;;;;;;15.80;15.30;;;26.40;58.60;;;;;;5020663;28;20909;-52
2021/11/18 11:18:51;;;;;;;15.20;14.70;;;26.70;57.40;;;;;;5020666;28;20870;-53
2021/11/18 11:21:35;;;;;;;15.80;15.20;;;27.00;56.30;;;;;;5021143;28;20456;-57
2021/11/18 11:24:23;;;;;;;14.50;14.10;;;27.00;55.20;;;;;;5020660;28;20496;-54
2021/11/18 11:27:41;;;;;;;15.03;14.43;;;27.00;55.00;;;;;;5020480;28;20481;-57
2021/11/18 11:30:20;;;;;;;15.87;15.23;;;27.50;53.90;;;;;;5020448;28;20453;-52
2021/11/18 11:32:51;;;;;;;15.60;15.00;;;27.40;53.10;;;;;;5020360;28;20444;-51
2021/11/18 11:35:30;;;;;;;16.30;15.60;;;27.20;53.00;;;;;;5018629;28;20959;-51
2021/11/18 11:38:23;;;;;;;15.40;14.90;;;27.10;53.20;;;;;;5020647;28;20563;-52
2021/11/18 11:40:59;;;;;;;14.27;13.77;;;27.00;53.20;;;;;;5000541;28;20449;-53
2021/11/18 11:43:39;;;;;;;13.90;13.50;;;26.80;53.40;;;;;;5020214;28;20487;-51
2021/11/18 11:46:22;;;;;;;14.30;13.80;;;26.70;53.50;;;;;;5020305;28;20460;-51
2021/11/18 11:49:02;;;;;;;14.97;14.37;;;26.70;53.40;;;;;;5020088;28;20452;-52
2021/11/18 11:51:51;;;;;;;16.20;15.50;;;27.00;53.00;;;;;;5020185;28;20449;-52
2021/11/18 11:54:47;;;;;;;15.93;15.20;;;26.80;52.90;;;;;;5020190;28;20445;-56
2021/11/18 11:57:23;;;;;;;14.80;14.40;;;26.70;53.10;;;;;;5020029;28;20584;-54
2021/11/18 11:59:58;;;;;;;14.83;14.33;;;26.80;53.00;;;;;;5019794;28;20445;-50
2021/11/18 12:02:32;;;;;;;14.60;14.10;;;26.90;52.50;;;;;;5019850;28;20445;-52
2021/11/18 12:05:10;;;;;;;15.33;14.73;;;26.70;52.60;;;;;;5020023;28;20522;-56
2021/11/18 12:07:40;;;;;;;14.77;14.27;;;26.60;52.80;;;;;;5020074;28;21103;-50
2021/11/18 12:10:21;;;;;;;14.70;14.20;;;26.50;52.80;;;;;;5020121;28;20456;-49
2021/11/18 12:12:54;;;;;;;14.83;14.23;;;26.30;52.80;;;;;;5019321;28;21197;-50
2021/11/18 12:15:23;;;;;;;15.57;14.97;;;26.10;53.40;;;;;;5019747;28;20457;-49
2021/11/18 12:17:54;;;;;;;16.43;15.43;;;25.90;54.40;;;;;;5019555;28;20810;-49
2021/11/18 12:20:22;;;;;;;16.70;15.07;;;25.90;55.30;;;;;;5019507;28;20864;-53
2021/11/18 12:22:57;;;;;;;15.90;15.10;;;25.70;57.30;;;;;;5019445;28;20851;-53
2021/11/18 12:25:39;;;;;;;16.70;15.40;;;25.70;59.70;;;;;;5019555;28;20453;-55
2021/11/18 12:28:27;;;;;;;17.47;16.37;;;25.50;59.90;;;;;;4999569;28;20481;-50
2021/11/18 12:31:18;;;;;;;17.73;16.50;;;25.40;62.20;;;;;;4999679;28;20450;-54
2021/11/18 12:33:50;;;;;;;18.40;17.37;;;25.50;62.80;;;;;;5000009;28;20592;-52
2021/11/18 12:36:24;;;;;;;17.03;16.03;;;25.50;62.30;;;;;;4999552;28;20894;-52
2021/11/18 12:39:18;;;;;;;16.47;15.20;;;25.50;62.30;;;;;;5011281;28;20452;-50
2021/11/18 12:41:50;;;;;;;17.27;16.00;;;25.60;61.70;;;;;;5019729;28;20456;-51
2021/11/18 12:44:32;;;;;;;16.03;15.13;;;25.60;61.10;;;;;;5019504;28;20827;-53